PWSweather.com
Personal Weather Stations
Station Observations
PICKERING
North Yorkshire, PickeringGB

North YorkshirePickeringGB

Lat: 54.2494, Lon: -0.7725

Elevation: 192

Station Type: Oregon Scientific WMR100

http://www.yorkshirewalker.co.uk/weather/

Latest ConditionsUpdated 3:30:00 AM GMT Monday, May 20, 2019
Currently Today's Max Today's Min Today's Average
Temperature 48.0°F8.9°C 49.8°F9.9°C 48.0°F8.9°C 49.1°F9.5°C
Dew Point 41.0°F5.0°C 42.8°F6.0°C 41.0°F5.0°C 42.0°F5.6°C
Winds 0.2 mph NW0.3 kmh NW 1.9 mph -3.1 kmh - - 1.0 mph 1.6 kmh
Wind Gusts 1.3 mph2.1 kmh 3.1 mph5.0 kmh - -
Humidity 75% 76% 71% 74%
Pressure 29.80 in1009.1 mb 29.83 in1010.2 mb 29.80 in1009.1 mb -
Hour Temp Dew Point Humidity Winds Wind Gusts Pressure Precip Precip Rate Daily Precip Total
03:30 AM 48.0°F8.9°C 41.0°F5.0°C 75% 0.2 mph NW0.3 kmh NW 1.3 mph2.1 kmh 29.80 in1009.1 mb 0.00 in0.0 mm 0.00 in0.0 mm 0.00 in0.0 mm
03:25 AM 48.2°F9.0°C 41.0°F5.0°C 75% 0.7 mph WSW1.1 kmh WSW 2.5 mph4.0 kmh 29.80 in1009.1 mb 0.00 in0.0 mm 0.00 in0.0 mm 0.00 in0.0 mm
03:20 AM 48.2°F9.0°C 41.0°F5.0°C 74% 1.1 mph WSW1.8 kmh WSW 2.5 mph4.0 kmh 29.80 in1009.1 mb 0.00 in0.0 mm 0.00 in0.0 mm 0.00 in0.0 mm
03:15 AM 48.2°F9.0°C 41.0°F5.0°C 75% 1.2 mph W1.9 kmh W 2.0 mph3.2 kmh 29.80 in1009.1 mb 0.00 in0.0 mm 0.00 in0.0 mm 0.00 in0.0 mm
03:10 AM 48.4°F9.1°C 41.0°F5.0°C 75% 1.0 mph W1.6 kmh W 2.0 mph3.2 kmh 29.80 in1009.1 mb 0.00 in0.0 mm 0.00 in0.0 mm 0.00 in0.0 mm
03:05 AM 48.6°F9.2°C 42.8°F6.0°C 75% 0.6 mph NW1.0 kmh NW 1.3 mph2.1 kmh 29.80 in1009.1 mb 0.00 in0.0 mm 0.00 in0.0 mm 0.00 in0.0 mm
03:00 AM 48.7°F9.3°C 42.8°F6.0°C 76% 0.1 mph N0.2 kmh N 1.1 mph1.8 kmh 29.80 in1009.1 mb 0.00 in0.0 mm 0.00 in0.0 mm 0.00 in0.0 mm
02:55 AM 48.7°F9.3°C 42.8°F6.0°C 76% 0.1 mph SW0.2 kmh SW 0.9 mph1.4 kmh 29.80 in1009.1 mb 0.00 in0.0 mm 0.00 in0.0 mm 0.00 in0.0 mm
02:50 AM 48.7°F9.3°C 42.8°F6.0°C 75% 0.6 mph SW1.0 kmh SW 1.6 mph2.6 kmh 29.80 in1009.1 mb 0.00 in0.0 mm 0.00 in0.0 mm 0.00 in0.0 mm
02:45 AM 48.6°F9.2°C 42.8°F6.0°C 75% 0.6 mph SW1.0 kmh SW 1.6 mph2.6 kmh 29.80 in1009.1 mb 0.00 in0.0 mm 0.00 in0.0 mm 0.00 in0.0 mm
02:40 AM 48.7°F9.3°C 42.8°F6.0°C 75% 0.3 mph WSW0.5 kmh WSW 1.1 mph1.8 kmh 29.80 in1009.1 mb 0.00 in0.0 mm 0.00 in0.0 mm 0.00 in0.0 mm
02:35 AM 48.7°F9.3°C 42.8°F6.0°C 75% 0.4 mph W0.6 kmh W 1.1 mph1.8 kmh 29.80 in1009.1 mb 0.00 in0.0 mm 0.00 in0.0 mm 0.00 in0.0 mm
02:30 AM 48.7°F9.3°C 42.8°F6.0°C 75% 1.0 mph WNW1.6 kmh WNW 2.5 mph4.0 kmh 29.80 in1009.1 mb 0.00 in0.0 mm 0.00 in0.0 mm 0.00 in0.0 mm
02:25 AM 48.7°F9.3°C 42.8°F6.0°C 75% 1.6 mph W2.6 kmh W 3.1 mph5.0 kmh 29.80 in1009.1 mb 0.00 in0.0 mm 0.00 in0.0 mm 0.00 in0.0 mm
02:20 AM 48.7°F9.3°C 42.8°F6.0°C 75% 1.5 mph WSW2.4 kmh WSW 3.1 mph5.0 kmh 29.80 in1009.1 mb 0.00 in0.0 mm 0.00 in0.0 mm 0.00 in0.0 mm
02:15 AM 48.9°F9.4°C 42.8°F6.0°C 75% 1.1 mph W1.8 kmh W 2.0 mph3.2 kmh 29.80 in1009.1 mb 0.00 in0.0 mm 0.00 in0.0 mm 0.00 in0.0 mm
02:10 AM 48.9°F9.4°C 42.8°F6.0°C 75% 1.0 mph NW1.6 kmh NW 2.0 mph3.2 kmh 29.80 in1009.1 mb 0.00 in0.0 mm 0.00 in0.0 mm 0.00 in0.0 mm
02:05 AM 48.7°F9.3°C 42.8°F6.0°C 75% 0.8 mph NW1.3 kmh NW 1.6 mph2.6 kmh 29.80 in1009.1 mb 0.00 in0.0 mm 0.00 in0.0 mm 0.00 in0.0 mm
02:00 AM 48.9°F9.4°C 41.0°F5.0°C 74% 1.1 mph NW1.8 kmh NW 2.9 mph4.7 kmh 29.80 in1009.1 mb 0.00 in0.0 mm 0.00 in0.0 mm 0.00 in0.0 mm
01:55 AM 48.9°F9.4°C 41.0°F5.0°C 74% 1.6 mph WNW2.6 kmh WNW 2.9 mph4.7 kmh 29.80 in1009.1 mb 0.00 in0.0 mm 0.00 in0.0 mm 0.00 in0.0 mm
01:50 AM 48.9°F9.4°C 41.0°F5.0°C 74% 1.4 mph WNW2.3 kmh WNW 2.9 mph4.7 kmh 29.80 in1009.1 mb 0.00 in0.0 mm 0.00 in0.0 mm 0.00 in0.0 mm
01:45 AM 49.1°F9.5°C 42.8°F6.0°C 74% 1.2 mph WNW1.9 kmh WNW 2.7 mph4.3 kmh 29.80 in1009.1 mb 0.00 in0.0 mm 0.00 in0.0 mm 0.00 in0.0 mm
01:40 AM 49.1°F9.5°C 42.8°F6.0°C 74% 1.6 mph WNW2.6 kmh WNW 2.7 mph4.3 kmh 29.80 in1009.1 mb 0.00 in0.0 mm 0.00 in0.0 mm 0.00 in0.0 mm
01:35 AM 49.3°F9.6°C 42.8°F6.0°C 74% 1.4 mph NW2.3 kmh NW 2.5 mph4.0 kmh 29.80 in1009.1 mb 0.00 in0.0 mm 0.00 in0.0 mm 0.00 in0.0 mm
01:30 AM 49.3°F9.6°C 42.8°F6.0°C 74% 0.9 mph NW1.4 kmh NW 2.5 mph4.0 kmh 29.80 in1009.1 mb 0.00 in0.0 mm 0.00 in0.0 mm 0.00 in0.0 mm
01:25 AM 49.5°F9.7°C 42.8°F6.0°C 74% 1.3 mph NW2.1 kmh NW 2.7 mph4.3 kmh 29.80 in1009.1 mb 0.00 in0.0 mm 0.00 in0.0 mm 0.00 in0.0 mm
01:20 AM 49.5°F9.7°C 42.8°F6.0°C 74% 1.2 mph NW1.9 kmh NW 2.7 mph4.3 kmh 29.80 in1009.1 mb 0.00 in0.0 mm 0.00 in0.0 mm 0.00 in0.0 mm
01:15 AM 49.5°F9.7°C 42.8°F6.0°C 74% 1.1 mph NW1.8 kmh NW 2.5 mph4.0 kmh 29.80 in1009.1 mb 0.00 in0.0 mm 0.00 in0.0 mm 0.00 in0.0 mm
01:10 AM 49.5°F9.7°C 42.8°F6.0°C 74% 1.5 mph NW2.4 kmh NW 2.5 mph4.0 kmh 29.80 in1009.1 mb 0.00 in0.0 mm 0.00 in0.0 mm 0.00 in0.0 mm
01:05 AM 49.5°F9.7°C 41.0°F5.0°C 73% 1.1 mph NNW1.8 kmh NNW 2.5 mph4.0 kmh 29.80 in1009.1 mb 0.00 in0.0 mm 0.00 in0.0 mm 0.00 in0.0 mm
01:00 AM 49.5°F9.7°C 41.0°F5.0°C 73% 0.5 mph N0.8 kmh N 2.0 mph3.2 kmh 29.80 in1009.1 mb 0.00 in0.0 mm 0.00 in0.0 mm 0.00 in0.0 mm
12:55 AM 49.5°F9.7°C 41.0°F5.0°C 73% 0.1 mph NE0.2 kmh NE 1.3 mph2.1 kmh 29.80 in1009.1 mb 0.00 in0.0 mm 0.00 in0.0 mm 0.00 in0.0 mm
12:50 AM 49.5°F9.7°C 41.0°F5.0°C 73% 0.4 mph NE0.6 kmh NE 1.3 mph2.1 kmh 29.80 in1009.1 mb 0.00 in0.0 mm 0.00 in0.0 mm 0.00 in0.0 mm
12:45 AM 49.6°F9.8°C 41.0°F5.0°C 73% 0.6 mph NE1.0 kmh NE 1.3 mph2.1 kmh 29.80 in1009.1 mb 0.00 in0.0 mm 0.00 in0.0 mm 0.00 in0.0 mm
12:40 AM 49.6°F9.8°C 41.0°F5.0°C 73% 0.6 mph E1.0 kmh E 2.5 mph4.0 kmh 29.80 in1009.1 mb 0.00 in0.0 mm 0.00 in0.0 mm 0.00 in0.0 mm
12:35 AM 49.6°F9.8°C 41.0°F5.0°C 73% 1.4 mph SE2.3 kmh SE 2.7 mph4.3 kmh 29.83 in1010.2 mb 0.00 in0.0 mm 0.00 in0.0 mm 0.00 in0.0 mm
12:30 AM 49.6°F9.8°C 41.0°F5.0°C 72% 1.9 mph SE3.1 kmh SE 2.7 mph4.3 kmh 29.83 in1010.2 mb 0.00 in0.0 mm 0.00 in0.0 mm 0.00 in0.0 mm
12:25 AM 49.6°F9.8°C 41.0°F5.0°C 72% 1.5 mph SSE2.4 kmh SSE 2.5 mph4.0 kmh 29.83 in1010.2 mb 0.00 in0.0 mm 0.00 in0.0 mm 0.00 in0.0 mm
12:20 AM 49.6°F9.8°C 41.0°F5.0°C 72% 1.1 mph SE1.8 kmh SE 2.5 mph4.0 kmh 29.83 in1010.2 mb 0.00 in0.0 mm 0.00 in0.0 mm 0.00 in0.0 mm
12:15 AM 49.8°F9.9°C 42.8°F6.0°C 72% 1.0 mph SE1.6 kmh SE 2.0 mph3.2 kmh 29.83 in1010.2 mb 0.00 in0.0 mm 0.00 in0.0 mm 0.00 in0.0 mm
12:10 AM 49.8°F9.9°C 42.8°F6.0°C 72% 1.1 mph SE1.8 kmh SE 2.0 mph3.2 kmh 29.83 in1010.2 mb 0.00 in0.0 mm 0.00 in0.0 mm 0.00 in0.0 mm
12:05 AM 49.8°F9.9°C 41.0°F5.0°C 71% 1.0 mph SE1.6 kmh SE 2.0 mph3.2 kmh 29.83 in1010.2 mb 0.00 in0.0 mm 0.00 in0.0 mm 0.00 in0.0 mm
12:00 AM 49.8°F9.9°C 41.0°F5.0°C 71% 1.6 mph SE2.6 kmh SE 2.7 mph4.3 kmh 29.83 in1010.2 mb 0.00 in0.0 mm 0.00 in0.0 mm 0.00 in0.0 mm